Time;durP1;ratioP1;P1;durP2;ratioP2;P2;SDS_P1;SDS_P2;PMS_P1;PMS_P2;Temp;Humidity;BMP_temperature;BMP_pressure;BME280_temperature;BME280_humidity;BME280_pressure;Samples;Min_cycle;Max_cycle;Signal;HPM_P1;HPM_P2
2023/09/01 00:00:46;;;;;;;6.50;2.40;;;12.00;99.90;;;;;;5020720;28;20108;-49
2023/09/01 00:03:33;;;;;;;7.35;2.70;;;12.00;99.90;;;;;;5037191;28;20075;-52
2023/09/01 00:06:02;;;;;;;6.60;2.40;;;11.90;99.90;;;;;;5037166;28;20025;-53
2023/09/01 00:08:28;;;;;;;6.53;2.20;;;11.90;99.90;;;;;;5019102;28;20478;-52
2023/09/01 00:10:54;;;;;;;10.45;2.85;;;11.90;99.90;;;;;;5036632;28;20034;-52
2023/09/01 00:13:19;;;;;;;4.35;2.20;;;11.90;99.90;;;;;;5036748;28;20122;-53
2023/09/01 00:15:45;;;;;;;5.35;2.65;;;11.90;99.90;;;;;;5019170;28;20037;-53
2023/09/01 00:18:11;;;;;;;6.43;2.55;;;11.90;99.90;;;;;;5036575;28;20275;-54
2023/09/01 00:20:36;;;;;;;6.15;2.50;;;11.80;99.90;;;;;;5036363;28;20068;-54
2023/09/01 00:23:05;;;;;;;4.15;2.28;;;11.90;99.90;;;;;;5035444;28;20116;-52
2023/09/01 00:25:31;;;;;;;11.45;2.85;;;11.90;99.90;;;;;;5036513;28;20025;-54
2023/09/01 00:27:57;;;;;;;5.88;2.47;;;12.00;99.90;;;;;;5036354;28;20083;-54
2023/09/01 00:30:22;;;;;;;5.03;2.78;;;12.10;99.90;;;;;;5017767;28;20402;-54
2023/09/01 00:32:48;;;;;;;8.00;2.80;;;12.10;99.90;;;;;;5037118;28;20044;-53
2023/09/01 00:35:14;;;;;;;6.05;2.40;;;12.00;99.90;;;;;;5019730;28;20030;-52
2023/09/01 00:37:40;;;;;;;7.18;2.35;;;12.00;99.90;;;;;;5019897;28;20033;-50
2023/09/01 00:40:07;;;;;;;10.35;2.47;;;12.00;99.90;;;;;;5037699;28;20488;-50
2023/09/01 00:42:33;;;;;;;5.88;2.08;;;12.00;99.90;;;;;;5020417;28;20030;-49
2023/09/01 00:44:59;;;;;;;7.60;2.45;;;12.00;99.90;;;;;;5037603;28;20029;-50
2023/09/01 00:47:24;;;;;;;6.15;2.60;;;12.10;99.90;;;;;;5019381;28;20029;-49
2023/09/01 00:49:50;;;;;;;5.55;2.15;;;12.10;99.90;;;;;;5019980;28;20029;-54
2023/09/01 00:52:16;;;;;;;6.93;2.53;;;12.20;99.90;;;;;;5037623;28;20033;-51
2023/09/01 00:54:41;;;;;;;6.97;2.40;;;12.20;99.90;;;;;;5037603;28;20394;-53
2023/09/01 00:57:07;;;;;;;5.80;2.40;;;12.20;99.90;;;;;;5019553;28;20061;-51
2023/09/01 00:59:34;;;;;;;6.53;2.20;;;12.20;99.90;;;;;;5019707;28;20033;-50
2023/09/01 01:02:00;;;;;;;6.28;1.98;;;12.20;99.90;;;;;;5019903;28;20230;-50
2023/09/01 01:04:25;;;;;;;4.70;2.10;;;12.30;99.90;;;;;;5002708;28;20389;-50
2023/09/01 01:07:08;;;;;;;7.05;2.63;;;12.30;99.90;;;;;;5037944;28;20033;-50
2023/09/01 01:09:36;;;;;;;6.28;2.50;;;12.40;99.90;;;;;;5020214;28;20116;-51
2023/09/01 01:12:30;;;;;;;6.05;2.92;;;12.40;99.90;;;;;;5020353;28;20637;-50
2023/09/01 01:14:58;;;;;;;3.83;2.08;;;12.50;99.90;;;;;;5020078;28;20224;-50
2023/09/01 01:17:25;;;;;;;5.05;2.33;;;12.50;99.90;;;;;;5020072;28;20071;-51
2023/09/01 01:20:13;;;;;;;6.43;2.53;;;12.50;99.90;;;;;;5037551;28;20052;-50
2023/09/01 01:22:53;;;;;;;4.13;2.13;;;12.50;99.90;;;;;;5037658;28;20033;-49
2023/09/01 01:25:20;;;;;;;8.57;2.60;;;12.50;99.90;;;;;;5019857;28;20160;-50
2023/09/01 01:27:46;;;;;;;4.13;2.15;;;12.50;99.90;;;;;;5037267;28;20026;-52
2023/09/01 01:30:15;;;;;;;6.68;2.85;;;12.50;99.90;;;;;;5018117;28;20030;-53
2023/09/01 01:32:42;;;;;;;4.40;2.50;;;12.60;99.90;;;;;;5034605;28;20040;-51
2023/09/01 01:35:12;;;;;;;5.57;2.38;;;12.60;99.90;;;;;;5018631;28;20040;-52
2023/09/01 01:37:52;;;;;;;4.65;2.22;;;12.70;99.90;;;;;;5018300;28;20030;-54
2023/09/01 01:40:22;;;;;;;7.53;2.20;;;12.70;99.90;;;;;;5035875;28;20049;-53
2023/09/01 01:42:50;;;;;;;5.65;2.20;;;12.70;99.90;;;;;;5023835;28;20139;-53
2023/09/01 01:45:20;;;;;;;6.85;2.47;;;12.70;99.90;;;;;;5024718;28;20040;-51
2023/09/01 01:47:48;;;;;;;5.32;2.40;;;12.70;99.90;;;;;;5038364;28;20037;-49
2023/09/01 01:50:13;;;;;;;6.63;2.05;;;12.80;99.90;;;;;;5019182;28;20554;-51
2023/09/01 01:52:39;;;;;;;6.35;2.05;;;12.80;99.90;;;;;;5019327;28;20053;-50
2023/09/01 01:55:07;;;;;;;3.85;2.00;;;12.80;99.90;;;;;;5037201;28;20056;-53
2023/09/01 01:57:33;;;;;;;7.82;2.40;;;12.80;99.90;;;;;;5036731;28;20041;-50
2023/09/01 01:59:59;;;;;;;7.18;2.55;;;12.80;99.90;;;;;;5019109;28;20037;-50
2023/09/01 02:02:24;;;;;;;8.00;2.58;;;12.80;99.90;;;;;;5019097;28;20025;-49
2023/09/01 02:04:50;;;;;;;7.18;2.95;;;12.80;99.90;;;;;;5018732;28;20037;-50
2023/09/01 02:07:16;;;;;;;4.53;2.20;;;12.80;99.90;;;;;;5018478;28;20042;-50
2023/09/01 02:09:42;;;;;;;5.97;2.60;;;12.80;99.90;;;;;;5018134;28;20477;-51
2023/09/01 02:12:08;;;;;;;7.28;2.08;;;12.80;99.90;;;;;;5018336;28;20042;-50
2023/09/01 02:14:34;;;;;;;3.72;2.00;;;12.80;99.90;;;;;;5036635;28;20079;-49
2023/09/01 02:17:00;;;;;;;8.07;2.70;;;12.80;99.90;;;;;;5018920;28;20101;-52
2023/09/01 02:19:28;;;;;;;8.13;2.83;;;12.90;99.90;;;;;;5017961;28;20045;-51
2023/09/01 02:21:54;;;;;;;7.15;2.55;;;12.90;99.90;;;;;;5017930;28;20030;-51
2023/09/01 02:24:19;;;;;;;9.88;2.85;;;12.90;99.90;;;;;;5017648;28;20087;-51
2023/09/01 02:26:45;;;;;;;5.57;2.20;;;12.90;99.90;;;;;;5018479;28;20040;-50
2023/09/01 02:29:10;;;;;;;5.53;2.30;;;12.90;99.90;;;;;;5018099;28;20033;-50
2023/09/01 02:31:36;;;;;;;8.73;2.88;;;12.90;99.90;;;;;;5017492;28;20028;-51
2023/09/01 02:34:04;;;;;;;3.90;2.38;;;13.00;99.90;;;;;;5018241;28;20418;-49
2023/09/01 02:36:35;;;;;;;5.03;2.20;;;13.00;99.90;;;;;;5018146;28;20063;-52
2023/09/01 02:39:01;;;;;;;5.72;2.30;;;13.00;99.90;;;;;;5017540;28;20084;-50
2023/09/01 02:41:28;;;;;;;6.43;2.38;;;13.00;99.90;;;;;;5017759;28;20390;-52
2023/09/01 02:43:54;;;;;;;5.97;2.78;;;13.00;99.90;;;;;;5017648;28;20053;-50
2023/09/01 02:46:20;;;;;;;8.05;2.38;;;13.10;99.90;;;;;;5021539;28;20025;-52
2023/09/01 02:48:46;;;;;;;8.73;2.53;;;13.10;99.90;;;;;;5021542;28;20030;-50
2023/09/01 02:51:12;;;;;;;5.38;2.50;;;13.30;99.90;;;;;;5021662;28;20085;-53
2023/09/01 02:53:38;;;;;;;4.40;2.10;;;13.40;99.90;;;;;;5021088;28;20079;-50
2023/09/01 02:56:04;;;;;;;7.30;2.08;;;13.40;99.90;;;;;;5021399;28;20029;-52
2023/09/01 02:58:30;;;;;;;5.18;2.00;;;13.40;99.90;;;;;;5039603;28;20678;-53
2023/09/01 03:00:56;;;;;;;4.07;2.28;;;13.40;99.90;;;;;;5021884;28;20378;-53
2023/09/01 03:03:23;;;;;;;5.88;2.65;;;13.40;99.90;;;;;;5038992;28;20083;-52
2023/09/01 03:05:50;;;;;;;8.95;2.47;;;13.50;99.90;;;;;;5021042;28;20108;-50
2023/09/01 03:08:23;;;;;;;5.65;2.22;;;13.50;99.90;;;;;;5021395;28;20083;-54
2023/09/01 03:10:49;;;;;;;6.50;2.25;;;13.50;99.90;;;;;;5020249;28;20093;-52
2023/09/01 03:13:15;;;;;;;8.15;3.05;;;13.50;99.90;;;;;;5038049;28;20465;-50
2023/09/01 03:15:41;;;;;;;7.82;2.38;;;13.60;99.90;;;;;;5021366;28;20052;-54
2023/09/01 03:18:11;;;;;;;5.15;2.40;;;13.50;99.90;;;;;;5038564;28;20093;-52
2023/09/01 03:20:37;;;;;;;;;;;13.50;99.90;;;;;;5021229;28;20021;-53
2023/09/01 03:23:03;;;;;;;5.30;2.22;;;13.40;99.90;;;;;;5021417;28;20281;-54
2023/09/01 03:25:29;;;;;;;4.75;2.25;;;13.40;99.90;;;;;;5020909;28;20117;-50
2023/09/01 03:27:55;;;;;;;7.47;2.47;;;13.50;99.90;;;;;;5038068;28;20026;-55
2023/09/01 03:30:21;;;;;;;8.93;2.33;;;13.50;99.90;;;;;;5020371;28;20052;-53
2023/09/01 03:32:47;;;;;;;9.98;2.40;;;13.50;99.90;;;;;;5019865;28;20471;-55
2023/09/01 03:35:12;;;;;;;3.75;1.90;;;13.50;99.90;;;;;;5038074;28;20029;-52
2023/09/01 03:37:38;;;;;;;6.00;2.25;;;13.50;99.90;;;;;;5020454;28;20021;-55
2023/09/01 03:40:10;;;;;;;5.20;2.67;;;13.50;99.90;;;;;;5021202;28;20564;-55
2023/09/01 03:42:36;;;;;;;5.18;2.22;;;13.50;99.90;;;;;;5020095;28;20033;-53
2023/09/01 03:45:03;;;;;;;5.78;2.42;;;13.50;99.90;;;;;;5020445;28;20143;-52
2023/09/01 03:47:28;;;;;;;5.82;2.17;;;13.50;99.90;;;;;;5020385;28;20040;-53
2023/09/01 03:49:54;;;;;;;6.60;2.55;;;13.50;99.90;;;;;;5020744;28;20429;-53
2023/09/01 03:52:20;;;;;;;4.35;2.30;;;13.50;99.90;;;;;;5000194;28;20059;-55
2023/09/01 03:54:46;;;;;;;4.93;2.40;;;13.50;99.90;;;;;;5032139;28;20025;-54
2023/09/01 03:57:12;;;;;;;4.78;2.05;;;13.50;99.90;;;;;;5032891;28;20049;-53
2023/09/01 03:59:37;;;;;;;6.05;2.17;;;13.50;99.90;;;;;;5036123;28;20029;-55
2023/09/01 04:02:04;;;;;;;5.00;2.38;;;13.50;99.90;;;;;;5018744;28;20022;-54
2023/09/01 04:04:30;;;;;;;5.35;2.50;;;13.50;99.90;;;;;;5018750;28;20029;-53
2023/09/01 04:06:56;;;;;;;6.80;2.45;;;13.40;99.90;;;;;;5036726;28;20021;-54
2023/09/01 04:09:22;;;;;;;11.00;4.80;;;13.40;99.90;;;;;;5036183;28;20022;-52
2023/09/01 04:11:47;;;;;;;5.60;2.55;;;13.50;99.90;;;;;;5036016;28;20029;-54
2023/09/01 04:14:13;;;;;;;4.93;2.40;;;13.50;99.90;;;;;;5018224;28;20030;-50
2023/09/01 04:16:39;;;;;;;7.63;2.20;;;13.50;99.90;;;;;;5017612;28;20025;-54
2023/09/01 04:19:05;;;;;;;5.45;2.50;;;13.60;99.90;;;;;;5018151;28;20025;-53
2023/09/01 04:21:30;;;;;;;10.60;2.40;;;13.60;99.90;;;;;;5018750;28;20021;-53
2023/09/01 04:23:58;;;;;;;4.72;2.15;;;13.60;99.90;;;;;;5018753;28;20497;-50
2023/09/01 04:26:25;;;;;;;5.72;2.50;;;13.60;99.90;;;;;;5016196;28;20505;-56
2023/09/01 04:28:50;;;;;;;3.90;2.20;;;13.60;99.90;;;;;;5016471;28;20382;-52
2023/09/01 04:31:17;;;;;;;5.93;2.22;;;13.50;99.90;;;;;;5017617;28;20033;-52
2023/09/01 04:33:44;;;;;;;5.55;1.83;;;13.60;99.90;;;;;;5033806;28;20037;-53
2023/09/01 04:36:10;;;;;;;5.78;2.50;;;13.60;99.90;;;;;;5017177;28;20135;-53
2023/09/01 04:38:36;;;;;;;6.25;2.45;;;13.60;99.90;;;;;;5017965;28;20025;-51
2023/09/01 04:41:02;;;;;;;6.72;2.15;;;13.60;99.90;;;;;;5018492;28;20026;-52
2023/09/01 04:43:31;;;;;;;4.30;2.28;;;13.70;99.90;;;;;;5017691;28;20041;-53
2023/09/01 04:45:57;;;;;;;6.47;2.30;;;13.70;99.90;;;;;;5018343;28;20395;-52
2023/09/01 04:48:25;;;;;;;4.25;2.40;;;13.80;99.90;;;;;;5034526;28;20029;-54
2023/09/01 04:50:50;;;;;;;7.22;2.72;;;13.80;99.90;;;;;;5034421;28;20029;-52
2023/09/01 04:53:17;;;;;;;4.28;2.33;;;13.90;99.90;;;;;;5017533;28;20112;-54
2023/09/01 04:55:42;;;;;;;6.75;2.33;;;14.00;99.90;;;;;;5034705;28;20064;-53
2023/09/01 04:58:08;;;;;;;4.03;2.13;;;14.00;99.90;;;;;;5035971;28;20033;-54
2023/09/01 05:00:34;;;;;;;5.60;2.65;;;14.10;99.90;;;;;;5018338;28;20031;-53
2023/09/01 05:03:03;;;;;;;5.25;2.00;;;14.10;99.90;;;;;;5017682;28;20077;-49
2023/09/01 05:05:29;;;;;;;2.95;2.05;;;14.20;99.90;;;;;;5017574;28;20037;-53
2023/09/01 05:07:55;;;;;;;3.67;2.25;;;14.20;99.90;;;;;;5018379;28;20056;-50
2023/09/01 05:10:21;;;;;;;6.50;3.05;;;14.20;99.90;;;;;;5034961;28;20112;-53
2023/09/01 05:12:46;;;;;;;4.53;2.10;;;14.30;99.90;;;;;;5017518;28;20073;-50
2023/09/01 05:15:13;;;;;;;5.25;2.38;;;14.30;99.90;;;;;;5018383;28;20119;-51
2023/09/01 05:17:40;;;;;;;4.85;2.30;;;14.40;99.90;;;;;;5017587;28;20033;-52
2023/09/01 05:20:07;;;;;;;8.30;2.95;;;14.50;99.90;;;;;;5017530;28;20553;-53
2023/09/01 05:22:33;;;;;;;5.10;2.10;;;14.50;99.90;;;;;;5034401;28;20036;-50
2023/09/01 05:24:59;;;;;;;5.40;2.25;;;14.50;99.90;;;;;;5017820;28;20040;-50
2023/09/01 05:27:25;;;;;;;6.47;2.40;;;14.50;99.90;;;;;;5033711;28;20047;-52
2023/09/01 05:29:51;;;;;;;7.03;2.90;;;14.50;99.90;;;;;;5017323;28;20033;-53
2023/09/01 05:32:17;;;;;;;3.85;2.05;;;14.50;99.90;;;;;;5017263;28;20104;-53
2023/09/01 05:34:43;;;;;;;5.82;2.63;;;14.50;99.90;;;;;;5034083;28;20043;-53
2023/09/01 05:37:11;;;;;;;7.55;2.50;;;14.60;99.90;;;;;;5018113;28;20034;-51
2023/09/01 05:39:38;;;;;;;;;;;14.50;99.90;;;;;;5018113;28;20084;-54
2023/09/01 05:42:04;;;;;;;5.00;2.38;;;14.60;99.90;;;;;;5017509;28;20160;-55
2023/09/01 05:44:30;;;;;;;4.97;2.88;;;14.70;99.90;;;;;;5034295;28;20033;-54
2023/09/01 05:46:56;;;;;;;11.60;4.55;;;14.70;99.90;;;;;;5017497;28;20040;-52
2023/09/01 05:49:23;;;;;;;9.30;3.83;;;14.70;99.90;;;;;;5017588;28;20032;-54
2023/09/01 05:51:49;;;;;;;4.65;2.22;;;14.80;99.90;;;;;;5034063;28;20053;-54
2023/09/01 05:54:16;;;;;;;7.20;2.25;;;14.90;99.90;;;;;;5035504;28;20398;-54
2023/09/01 05:56:41;;;;;;;5.00;2.20;;;14.90;99.90;;;;;;5035920;28;20063;-52
2023/09/01 05:59:07;;;;;;;3.63;2.10;;;14.90;99.90;;;;;;5018853;28;20037;-54
2023/09/01 06:01:35;;;;;;;5.60;2.30;;;14.90;99.90;;;;;;5036378;28;20406;-55
2023/09/01 06:04:03;;;;;;;6.00;2.47;;;15.00;99.90;;;;;;5019366;28;20432;-55
2023/09/01 06:06:31;;;;;;;5.03;2.13;;;15.10;99.90;;;;;;5036196;28;20044;-55
2023/09/01 06:09:00;;;;;;;4.47;2.08;;;15.20;99.90;;;;;;5035894;28;20037;-53
2023/09/01 06:11:26;;;;;;;4.07;2.20;;;15.30;99.90;;;;;;5035841;28;20093;-54
2023/09/01 06:13:52;;;;;;;4.70;1.80;;;15.50;99.90;;;;;;5035355;28;20033;-54
2023/09/01 06:16:17;;;;;;;3.60;2.15;;;15.50;99.90;;;;;;5035380;28;20022;-55
2023/09/01 06:18:43;;;;;;;3.63;1.52;;;15.50;99.90;;;;;;5035080;28;20034;-56
2023/09/01 06:21:10;;;;;;;6.30;1.98;;;15.50;99.90;;;;;;5038049;28;20021;-56
2023/09/01 06:23:40;;;;;;;4.15;2.00;;;15.40;99.90;;;;;;5038930;28;20401;-55
2023/09/01 06:26:06;;;;;;;4.10;2.03;;;15.40;99.90;;;;;;5038711;28;20034;-55
2023/09/01 06:28:33;;;;;;;5.40;1.85;;;15.50;99.90;;;;;;5039094;28;20486;-54
2023/09/01 06:30:59;;;;;;;2.67;1.40;;;15.50;99.90;;;;;;5038050;28;20044;-54
2023/09/01 06:33:24;;;;;;;6.68;1.75;;;15.40;99.90;;;;;;5039108;28;20041;-55
2023/09/01 06:35:50;;;;;;;3.08;1.77;;;15.40;99.90;;;;;;5039179;28;20224;-55
2023/09/01 06:38:16;;;;;;;3.38;1.70;;;15.50;99.90;;;;;;5039369;28;20037;-55
2023/09/01 06:40:43;;;;;;;3.08;1.70;;;15.60;99.90;;;;;;5038518;28;20091;-55
2023/09/01 06:43:09;;;;;;;3.50;1.90;;;15.70;99.90;;;;;;5020366;28;20030;-55
2023/09/01 06:45:34;;;;;;;6.35;2.10;;;15.70;99.90;;;;;;5021025;28;20532;-54
2023/09/01 06:48:00;;;;;;;6.28;2.22;;;15.70;99.90;;;;;;5038151;28;20033;-52
2023/09/01 06:50:28;;;;;;;4.90;1.90;;;15.80;99.90;;;;;;5038696;28;20022;-53
2023/09/01 06:52:54;;;;;;;3.67;1.70;;;15.80;99.90;;;;;;5037917;28;20033;-53
2023/09/01 06:55:19;;;;;;;4.32;1.95;;;15.70;99.90;;;;;;5038374;28;20040;-54
2023/09/01 06:57:45;;;;;;;3.08;1.63;;;15.70;99.90;;;;;;5038520;28;20033;-53
2023/09/01 07:00:11;;;;;;;3.17;1.48;;;15.70;99.90;;;;;;5038351;28;20367;-54
2023/09/01 07:02:37;;;;;;;3.28;1.63;;;15.80;99.90;;;;;;5038162;28;20032;-52
2023/09/01 07:05:03;;;;;;;3.40;1.77;;;15.90;99.90;;;;;;5037721;28;20034;-55
2023/09/01 07:07:29;;;;;;;3.35;1.67;;;15.90;99.90;;;;;;5038339;28;20513;-54
2023/09/01 07:09:54;;;;;;;3.45;1.67;;;16.00;99.90;;;;;;5037883;28;20118;-54
2023/09/01 07:12:20;;;;;;;3.25;1.50;;;16.00;99.90;;;;;;5037901;28;20060;-56
2023/09/01 07:14:45;;;;;;;6.03;1.70;;;16.10;99.90;;;;;;5037550;28;20103;-54
2023/09/01 07:17:12;;;;;;;8.30;1.70;;;16.10;99.90;;;;;;5038363;28;20044;-54
2023/09/01 07:19:37;;;;;;;3.55;1.40;;;16.20;99.90;;;;;;5036636;28;20318;-54
2023/09/01 07:22:05;;;;;;;4.30;2.10;;;16.30;99.90;;;;;;5037915;28;20040;-55
2023/09/01 07:24:31;;;;;;;2.05;1.33;;;16.30;99.90;;;;;;5036774;28;20034;-54
2023/09/01 07:26:57;;;;;;;2.35;1.20;;;16.50;99.90;;;;;;5037504;28;20021;-52
2023/09/01 07:29:23;;;;;;;2.92;1.30;;;16.60;99.90;;;;;;5037541;28;20091;-55
2023/09/01 07:31:48;;;;;;;3.80;1.90;;;16.60;99.90;;;;;;5037633;28;20029;-52
2023/09/01 07:34:14;;;;;;;4.30;1.40;;;16.60;99.90;;;;;;5037223;28;20036;-55
2023/09/01 07:36:40;;;;;;;3.17;1.30;;;16.60;99.90;;;;;;5037468;28;20024;-55
2023/09/01 07:39:05;;;;;;;2.60;1.38;;;16.70;99.90;;;;;;5036967;28;20474;-51
2023/09/01 07:41:31;;;;;;;1.83;1.48;;;16.60;99.90;;;;;;5019379;28;20029;-56
2023/09/01 07:43:56;;;;;;;3.97;1.40;;;16.60;99.90;;;;;;5019666;28;20021;-56
2023/09/01 07:46:22;;;;;;;2.85;1.30;;;16.60;99.90;;;;;;5037049;28;20375;-55
2023/09/01 07:48:48;;;;;;;3.95;1.33;;;16.70;99.90;;;;;;5036660;28;20041;-55
2023/09/01 07:51:13;;;;;;;3.97;1.30;;;16.70;99.90;;;;;;5019661;28;20047;-56
2023/09/01 07:53:39;;;;;;;6.38;1.40;;;16.70;99.90;;;;;;5037232;28;20060;-55
2023/09/01 07:56:05;;;;;;;3.65;1.13;;;16.70;99.90;;;;;;5037110;28;20021;-51
2023/09/01 07:58:31;;;;;;;2.60;1.33;;;16.70;99.90;;;;;;5037123;28;20495;-54
2023/09/01 08:00:57;;;;;;;2.78;1.50;;;16.70;99.90;;;;;;5037257;28;20117;-54
2023/09/01 08:03:22;;;;;;;3.85;1.88;;;16.70;99.90;;;;;;5037486;28;20034;-56
2023/09/01 08:05:48;;;;;;;2.33;1.50;;;16.70;99.90;;;;;;5019125;28;20030;-54
2023/09/01 08:08:14;;;;;;;4.60;1.35;;;16.80;99.90;;;;;;5036801;28;20033;-53
2023/09/01 08:10:40;;;;;;;3.53;1.30;;;16.90;99.90;;;;;;5037103;28;20026;-56
2023/09/01 08:13:06;;;;;;;3.58;1.20;;;16.90;99.90;;;;;;5036837;28;20033;-52
2023/09/01 08:15:32;;;;;;;2.70;1.15;;;16.90;99.90;;;;;;5036763;28;20064;-56
2023/09/01 08:17:58;;;;;;;3.55;1.27;;;16.90;99.90;;;;;;5036581;28;20474;-54
2023/09/01 08:20:25;;;;;;;2.35;1.20;;;17.00;99.90;;;;;;5037017;28;20060;-54
2023/09/01 08:22:51;;;;;;;2.28;1.27;;;17.00;99.90;;;;;;5036892;28;20040;-56
2023/09/01 08:25:17;;;;;;;24.55;11.68;;;17.10;99.90;;;;;;5036612;28;20112;-54
2023/09/01 08:27:43;;;;;;;12.07;6.13;;;17.10;99.90;;;;;;5035448;28;20120;-55
2023/09/01 08:30:10;;;;;;;2.92;1.15;;;17.10;99.90;;;;;;5036891;28;20021;-52
2023/09/01 08:32:39;;;;;;;2.75;1.63;;;17.10;99.90;;;;;;5036404;28;20457;-54
2023/09/01 08:35:04;;;;;;;10.45;5.72;;;17.00;99.90;;;;;;5036413;28;20068;-56
2023/09/01 08:37:30;;;;;;;2.90;1.52;;;17.00;99.90;;;;;;5036335;28;20017;-55
2023/09/01 08:39:56;;;;;;;6.45;2.35;;;17.00;99.90;;;;;;5036178;28;20060;-55
2023/09/01 08:42:22;;;;;;;5.03;1.58;;;17.00;99.90;;;;;;5034304;28;20056;-56
2023/09/01 08:44:48;;;;;;;2.17;1.23;;;17.00;99.90;;;;;;5035262;28;20065;-54
2023/09/01 08:47:17;;;;;;;1.63;1.10;;;16.90;99.90;;;;;;5036656;28;20037;-50
2023/09/01 08:49:44;;;;;;;2.13;1.05;;;16.80;99.90;;;;;;5036196;28;20057;-54
2023/09/01 08:52:10;;;;;;;1.90;1.50;;;16.80;99.90;;;;;;5036591;28;20033;-51
2023/09/01 08:54:37;;;;;;;2.95;1.52;;;16.80;99.90;;;;;;5002503;28;20071;-53
2023/09/01 08:57:03;;;;;;;3.88;1.55;;;16.70;99.90;;;;;;5036313;28;20183;-54
2023/09/01 08:59:31;;;;;;;3.67;1.88;;;16.70;99.90;;;;;;5036398;28;20061;-55
2023/09/01 09:01:56;;;;;;;5.32;2.00;;;16.60;99.90;;;;;;5035812;28;20485;-54
2023/09/01 09:04:22;;;;;;;3.60;1.90;;;16.60;99.90;;;;;;5036248;28;20025;-53
2023/09/01 09:06:48;;;;;;;2.25;1.70;;;16.60;99.90;;;;;;5036865;28;20048;-54
2023/09/01 09:09:14;;;;;;;2.70;1.50;;;16.60;99.90;;;;;;5018862;28;20029;-54
2023/09/01 09:11:57;;;;;;;5.55;1.40;;;16.60;99.90;;;;;;5036263;28;20037;-53
2023/09/01 09:14:24;;;;;;;5.78;2.55;;;16.40;99.90;;;;;;5036423;28;20042;-51
2023/09/01 09:16:54;;;;;;;4.18;2.28;;;16.40;99.90;;;;;;5018440;28;20549;-55
2023/09/01 09:19:20;;;;;;;4.28;2.33;;;16.30;99.90;;;;;;5018467;28;20041;-52
2023/09/01 09:21:46;;;;;;;6.80;2.45;;;16.30;99.90;;;;;;5036257;28;20036;-53
2023/09/01 09:24:12;;;;;;;5.05;2.63;;;16.30;99.90;;;;;;5035020;28;20459;-56
2023/09/01 09:26:37;;;;;;;6.50;2.30;;;16.20;99.90;;;;;;5035839;28;20045;-56
2023/09/01 09:29:11;;;;;;;5.15;1.90;;;16.20;99.90;;;;;;5036020;28;20041;-55
2023/09/01 09:31:40;;;;;;;4.75;2.00;;;16.10;99.90;;;;;;5035785;28;20394;-56
2023/09/01 09:34:14;;;;;;;5.85;2.42;;;16.00;99.90;;;;;;5035948;28;20041;-54
2023/09/01 09:36:39;;;;;;;4.07;2.30;;;16.00;99.90;;;;;;5035109;28;20095;-55
2023/09/01 09:39:09;;;;;;;6.60;3.22;;;16.00;99.90;;;;;;5035793;28;20041;-55
2023/09/01 09:41:47;;;;;;;3.92;2.30;;;16.10;99.90;;;;;;5035428;28;20469;-52
2023/09/01 09:44:32;;;;;;;9.20;3.60;;;16.10;99.90;;;;;;5035582;28;20033;-52
2023/09/01 09:46:58;;;;;;;6.70;2.58;;;16.10;99.90;;;;;;5035439;28;20029;-54
2023/09/01 09:49:24;;;;;;;7.10;2.42;;;16.10;99.90;;;;;;5034984;28;20196;-54
2023/09/01 09:51:53;;;;;;;3.72;2.38;;;16.10;99.90;;;;;;5035532;28;20120;-54
2023/09/01 09:54:21;;;;;;;6.22;2.72;;;16.10;99.90;;;;;;5034361;28;20076;-55
2023/09/01 09:56:50;;;;;;;4.25;2.33;;;16.10;99.90;;;;;;5017884;28;20367;-53
2023/09/01 09:59:22;;;;;;;4.15;2.17;;;16.00;99.90;;;;;;5034956;28;20143;-55
2023/09/01 10:01:48;;;;;;;6.55;2.75;;;16.00;99.90;;;;;;5017591;28;20036;-56
2023/09/01 10:04:17;;;;;;;3.95;2.25;;;16.00;99.90;;;;;;5035301;28;20469;-51
2023/09/01 10:06:44;;;;;;;4.43;2.20;;;16.00;99.90;;;;;;5034841;28;20060;-54
2023/09/01 10:09:11;;;;;;;4.10;2.20;;;16.00;99.90;;;;;;5035367;28;20433;-55
2023/09/01 10:11:37;;;;;;;5.63;2.30;;;16.00;99.90;;;;;;5034018;28;20140;-53
2023/09/01 10:14:04;;;;;;;3.60;2.50;;;16.00;99.90;;;;;;5035390;28;20312;-53
2023/09/01 10:16:30;;;;;;;4.82;2.60;;;16.00;99.90;;;;;;5035486;28;20029;-53
2023/09/01 10:18:56;;;;;;;4.03;1.88;;;16.00;99.90;;;;;;5035012;28;20434;-54
2023/09/01 10:21:22;;;;;;;2.83;1.70;;;16.00;99.90;;;;;;5035119;28;20076;-55
2023/09/01 10:23:48;;;;;;;2.97;1.50;;;16.00;99.90;;;;;;5034747;28;20038;-55
2023/09/01 10:26:24;;;;;;;4.47;1.77;;;16.10;99.90;;;;;;5035471;28;20032;-54
2023/09/01 10:28:58;;;;;;;2.47;1.50;;;16.10;99.90;;;;;;5035287;28;20057;-52
2023/09/01 10:31:24;;;;;;;2.92;2.10;;;16.10;99.90;;;;;;5017122;28;20037;-54
2023/09/01 10:34:13;;;;;;;2.60;1.65;;;16.10;99.90;;;;;;5034389;28;20037;-54
2023/09/01 10:36:41;;;;;;;6.50;2.72;;;16.20;99.90;;;;;;5020187;28;20049;-54
2023/09/01 10:39:19;;;;;;;2.55;1.60;;;16.20;99.90;;;;;;5035275;28;20036;-53
2023/09/01 10:42:02;;;;;;;2.70;1.58;;;16.20;99.90;;;;;;5035443;28;20037;-52
2023/09/01 10:44:48;;;;;;;5.25;2.10;;;16.20;99.90;;;;;;5035713;28;20115;-54
2023/09/01 10:47:32;;;;;;;4.00;1.60;;;16.20;99.90;;;;;;5034724;28;20033;-55
2023/09/01 10:49:58;;;;;;;3.15;1.42;;;16.30;99.90;;;;;;5034503;28;20026;-53
2023/09/01 10:52:24;;;;;;;3.08;1.80;;;16.30;99.90;;;;;;5035101;28;20346;-52
2023/09/01 10:55:05;;;;;;;2.90;1.45;;;16.30;99.90;;;;;;5033806;28;20124;-53
2023/09/01 10:57:41;;;;;;;3.35;1.63;;;16.40;99.90;;;;;;5032951;28;20033;-55
2023/09/01 11:00:30;;;;;;;2.42;1.50;;;16.40;99.90;;;;;;5034547;28;20033;-53
2023/09/01 11:03:29;;;;;;;2.10;1.40;;;16.50;99.90;;;;;;5034208;28;20021;-54
2023/09/01 11:05:56;;;;;;;2.50;1.40;;;16.50;99.90;;;;;;5035516;28;20406;-55
2023/09/01 11:08:24;;;;;;;3.00;1.45;;;16.50;99.90;;;;;;5038026;28;20033;-56
2023/09/01 11:10:51;;;;;;;3.05;1.35;;;16.50;99.90;;;;;;5020241;28;20108;-54
2023/09/01 11:13:18;;;;;;;2.30;1.20;;;16.60;99.90;;;;;;5037298;28;20116;-51
2023/09/01 11:15:49;;;;;;;5.00;1.20;;;16.60;99.90;;;;;;5037913;28;20037;-56
2023/09/01 11:18:22;;;;;;;1.92;1.20;;;16.70;99.90;;;;;;5038090;28;20044;-55
2023/09/01 11:20:52;;;;;;;1.80;1.20;;;16.70;99.90;;;;;;5037256;28;20032;-55
2023/09/01 11:23:22;;;;;;;2.85;1.40;;;16.70;99.90;;;;;;5037440;28;20053;-54
2023/09/01 11:25:56;;;;;;;2.67;1.20;;;16.70;99.90;;;;;;5037179;28;20028;-55
2023/09/01 11:28:22;;;;;;;2.08;1.00;;;16.80;99.90;;;;;;5036935;28;20048;-55
2023/09/01 11:30:55;;;;;;;2.17;1.30;;;16.80;99.90;;;;;;5037340;28;20033;-56
2023/09/01 11:33:22;;;;;;;2.80;1.10;;;16.80;99.90;;;;;;5037401;28;20120;-53
2023/09/01 11:35:48;;;;;;;2.25;1.30;;;16.90;99.90;;;;;;5036841;28;20037;-54
2023/09/01 11:38:20;;;;;;;1.73;1.10;;;16.90;99.90;;;;;;5036843;28;20063;-54
2023/09/01 11:40:51;;;;;;;1.83;1.15;;;16.90;99.90;;;;;;5036968;28;20079;-54
2023/09/01 11:43:19;;;;;;;3.00;1.63;;;16.90;99.90;;;;;;5037177;28;20025;-54
2023/09/01 11:45:48;;;;;;;2.25;1.17;;;16.90;99.90;;;;;;5037291;28;20048;-52
2023/09/01 11:48:28;;;;;;;3.10;1.42;;;17.00;99.90;;;;;;5035767;28;20033;-53
2023/09/01 11:50:54;;;;;;;2.22;1.23;;;17.00;99.90;;;;;;5036890;28;20489;-55
2023/09/01 11:53:25;;;;;;;2.22;1.20;;;17.10;99.90;;;;;;5037012;28;20057;-54
2023/09/01 11:55:51;;;;;;;3.03;1.17;;;17.10;99.90;;;;;;5037104;28;20060;-54
2023/09/01 11:58:17;;;;;;;2.17;1.23;;;17.20;99.90;;;;;;5036867;28;20075;-52
2023/09/01 12:00:44;;;;;;;3.00;1.40;;;17.20;99.90;;;;;;5036623;28;20072;-54
2023/09/01 12:03:11;;;;;;;3.30;1.65;;;17.20;99.90;;;;;;5018498;28;20025;-53
2023/09/01 12:05:39;;;;;;;2.75;1.38;;;17.20;99.90;;;;;;5036693;28;20029;-51
2023/09/01 12:08:06;;;;;;;3.58;1.30;;;17.30;99.90;;;;;;5036695;28;20029;-51
2023/09/01 12:10:32;;;;;;;2.65;1.60;;;17.30;99.90;;;;;;5035126;28;20033;-53
2023/09/01 12:13:24;;;;;;;3.55;1.65;;;17.40;99.90;;;;;;5036322;28;20034;-54
2023/09/01 12:16:03;;;;;;;4.70;1.85;;;17.40;99.90;;;;;;5032056;28;20092;-55
2023/09/01 12:18:36;;;;;;;;;;;17.50;99.90;;;;;;5036513;28;20033;-54
2023/09/01 12:21:10;;;;;;;4.00;1.52;;;17.50;99.90;;;;;;5037354;28;20003;-55
2023/09/01 12:23:43;;;;;;;3.65;1.60;;;17.60;99.90;;;;;;5036827;28;20117;-53
2023/09/01 12:26:10;;;;;;;3.95;1.80;;;17.60;99.90;;;;;;5037201;28;20453;-53
2023/09/01 12:28:38;;;;;;;3.95;1.95;;;17.60;99.90;;;;;;5037014;28;20041;-55
2023/09/01 12:31:06;;;;;;;3.35;1.85;;;17.70;99.90;;;;;;5037119;28;20448;-51
2023/09/01 12:33:31;;;;;;;4.07;1.90;;;17.70;99.90;;;;;;5036484;28;20025;-54
2023/09/01 12:35:58;;;;;;;6.05;2.15;;;17.80;99.90;;;;;;5037189;28;20453;-53
2023/09/01 12:38:24;;;;;;;3.47;1.77;;;17.80;99.90;;;;;;5036855;28;20037;-51
2023/09/01 12:40:50;;;;;;;5.20;2.10;;;17.90;99.90;;;;;;5036654;28;20470;-55
2023/09/01 12:43:16;;;;;;;5.32;2.20;;;17.90;99.90;;;;;;5035848;28;20022;-54
2023/09/01 12:45:42;;;;;;;5.50;2.22;;;17.90;99.90;;;;;;5036517;28;20470;-56
2023/09/01 12:48:08;;;;;;;2.63;1.65;;;18.00;99.90;;;;;;5036283;28;20447;-55
2023/09/01 12:50:34;;;;;;;4.03;2.17;;;18.00;99.90;;;;;;5035784;28;20060;-55